로스앤젤레스, CA

9:40 PM PDT on March 31, 2015 (GMT -0700)
Natural History Museum | | Change Station
CLOSE
Current Station
Personal Weather Stations
Location: Los Angeles, CA
Elevation: 207 ft
Nearby Weather Stations
Active Advisory: Beach Hazard Statement Active Notice: Public Information Statement

Elev 207 ft 34.02 °N, 118.29 °W | Updated 49 seconds ago

맑음
맑음
58.6 °F
Feels Like 58.6 °F
N
0.0
바람 Variable 바람 from 서북서
Gusts 0.0 mph

오늘
High -- | Low -- °F
--% Chance of Precip.
어제
High -- | Low -- °F
Precip. -- 인치
6:41 AM 7:12 PM
상현망간의 달, 90% visible
기압 29.96 인치
가시도 9.0 마일
구름 맑음
이슬점 54 °F
습도 84%
Rainfall 0.00 인치
Snow Depth Not available.
자외선 지수 0 out of 12
Pollen 8.90 out of 12
에어 품질 Not available.
Flu Activity Not available.
METAR KCQT 010347Z AUTO 00000KT 9SM CLR 17/13 A2996 RMK AO2 SLP144 T01670128

More Conditions Fewer Conditions

기압 29.96 인치
가시도 9.0 마일
구름 맑음
이슬점 54 °F
습도 84%
Rainfall 0.00 인치
Snow Depth Not available.
자외선 지수 0 out of 12
Pollen 8.90 out of 12
에어 품질 Not available.
Flu Activity Not available.
METAR KCQT 010347Z AUTO 00000KT 9SM CLR 17/13 A2996 RMK AO2 SLP144 T01670128

More Conditions Fewer Conditions

10-Day Weather Forecast

Almanac

천문

Mar. 31, 2015 Rise Set
Actual Time
Civil Twilight
Nautical Twilight
Astronomical Twilight
Moon
Length Of Visible Light
낮 길이
Tomorrow will be .
, % of the Moon is Illuminated

Today's Extremes

State Highs State Lows

Community

WunderPhotos

Upload Photos

1,809,919 photos uploaded!

WunderBlogs® & News

Nearby

에어 품질

  에어 품질 AQ Index Pollutant
Not available.

Snow Depth

Station Depth Elevation

Earthquake Activity

City Distance Mag. Time & Date
Minimum magnitude displayed is 2.5.

Coastal Water Temperatures

장소 기온

Stations

Nearby Weather Stations

Station Location Temp 풍속냉각지수 이슬점 습도 바람 Precip. Elev 업데이트 시각 Type
                   
Beach Hazard Statement
Statement as of 2:26 PM PDT on March 31, 2015

... Beach hazards statement remains in effect through late
Wednesday night...

* hazards... dangerous rip currents and breaking waves on coastal
rock jetties are expected through Wednesday night.

* Impacts... there is an increased risk for ocean drowning. Rip
currents can pull swimmers and surfers out to sea. Waves can
suddenly wash people off of beaches and coastal rock jetties.

Precautionary/preparedness actions...

A beach hazards statement is issued when threats to beach and
surf zone safety are expected or occurring. Caution should be
used when in or near the water. Stay near occupied lifeguard
towers and never swim alone. If caught in a rip current... swim
parallel to the shore.